sensor_id;sensor_type;location;lat;lon;timestamp;P1;durP1;ratioP1;P2;durP2;ratioP2
77868;SDS011;67231;59.144;37.934;2023-07-20T00:00:03;29.90;;;10.07;;
77868;SDS011;67231;59.144;37.934;2023-07-20T00:02:40;30.90;;;10.70;;
77868;SDS011;67231;59.144;37.934;2023-07-20T00:05:06;24.42;;;9.40;;
77868;SDS011;67231;59.144;37.934;2023-07-20T00:07:33;31.75;;;9.88;;
77868;SDS011;67231;59.144;37.934;2023-07-20T00:09:59;26.67;;;10.23;;
77868;SDS011;67231;59.144;37.934;2023-07-20T00:12:26;26.83;;;9.13;;
77868;SDS011;67231;59.144;37.934;2023-07-20T00:14:52;37.00;;;11.65;;
77868;SDS011;67231;59.144;37.934;2023-07-20T00:17:19;40.92;;;12.90;;
77868;SDS011;67231;59.144;37.934;2023-07-20T00:19:46;48.55;;;13.50;;
77868;SDS011;67231;59.144;37.934;2023-07-20T00:22:13;41.40;;;13.10;;
77868;SDS011;67231;59.144;37.934;2023-07-20T00:24:39;34.97;;;12.02;;
77868;SDS011;67231;59.144;37.934;2023-07-20T00:27:06;44.78;;;14.82;;
77868;SDS011;67231;59.144;37.934;2023-07-20T00:29:32;52.55;;;15.07;;
77868;SDS011;67231;59.144;37.934;2023-07-20T00:31:59;45.97;;;15.27;;
77868;SDS011;67231;59.144;37.934;2023-07-20T00:34:25;45.35;;;14.45;;
77868;SDS011;67231;59.144;37.934;2023-07-20T00:36:53;39.55;;;12.38;;
77868;SDS011;67231;59.144;37.934;2023-07-20T00:39:20;26.90;;;9.35;;
77868;SDS011;67231;59.144;37.934;2023-07-20T00:41:46;33.47;;;10.35;;
77868;SDS011;67231;59.144;37.934;2023-07-20T00:44:13;23.77;;;8.85;;
77868;SDS011;67231;59.144;37.934;2023-07-20T00:46:39;32.50;;;10.20;;
77868;SDS011;67231;59.144;37.934;2023-07-20T00:49:07;32.97;;;10.90;;
77868;SDS011;67231;59.144;37.934;2023-07-20T00:51:34;23.75;;;8.85;;
77868;SDS011;67231;59.144;37.934;2023-07-20T00:54:02;21.17;;;7.90;;
77868;SDS011;67231;59.144;37.934;2023-07-20T00:56:29;33.65;;;11.27;;
77868;SDS011;67231;59.144;37.934;2023-07-20T00:58:55;36.08;;;10.95;;
77868;SDS011;67231;59.144;37.934;2023-07-20T01:01:22;34.63;;;12.07;;
77868;SDS011;67231;59.144;37.934;2023-07-20T01:03:49;30.73;;;9.95;;
77868;SDS011;67231;59.144;37.934;2023-07-20T01:09:17;37.35;;;11.68;;
77868;SDS011;67231;59.144;37.934;2023-07-20T01:12:20;39.78;;;12.23;;
77868;SDS011;67231;59.144;37.934;2023-07-20T01:14:44;41.15;;;11.45;;
77868;SDS011;67231;59.144;37.934;2023-07-20T01:17:11;37.85;;;11.40;;
77868;SDS011;67231;59.144;37.934;2023-07-20T01:19:38;35.67;;;10.10;;
77868;SDS011;67231;59.144;37.934;2023-07-20T01:33:18;37.45;;;12.48;;
77868;SDS011;67231;59.144;37.934;2023-07-20T01:35:52;38.40;;;11.88;;
77868;SDS011;67231;59.144;37.934;2023-07-20T01:38:21;39.30;;;13.57;;
77868;SDS011;67231;59.144;37.934;2023-07-20T01:40:50;48.83;;;14.40;;
77868;SDS011;67231;59.144;37.934;2023-07-20T01:43:18;61.00;;;21.42;;
77868;SDS011;67231;59.144;37.934;2023-07-20T01:45:45;58.90;;;20.63;;
77868;SDS011;67231;59.144;37.934;2023-07-20T01:48:13;64.18;;;21.35;;
77868;SDS011;67231;59.144;37.934;2023-07-20T01:50:42;53.03;;;19.77;;
77868;SDS011;67231;59.144;37.934;2023-07-20T01:53:09;58.13;;;21.83;;
77868;SDS011;67231;59.144;37.934;2023-07-20T01:55:36;63.67;;;20.17;;
77868;SDS011;67231;59.144;37.934;2023-07-20T01:58:02;57.85;;;20.83;;
77868;SDS011;67231;59.144;37.934;2023-07-20T02:00:29;53.15;;;19.38;;
77868;SDS011;67231;59.144;37.934;2023-07-20T02:02:56;57.55;;;20.10;;
77868;SDS011;67231;59.144;37.934;2023-07-20T02:05:23;51.10;;;17.75;;
77868;SDS011;67231;59.144;37.934;2023-07-20T02:07:50;57.13;;;18.90;;
77868;SDS011;67231;59.144;37.934;2023-07-20T02:10:20;49.05;;;16.25;;
77868;SDS011;67231;59.144;37.934;2023-07-20T02:12:47;66.65;;;20.55;;
77868;SDS011;67231;59.144;37.934;2023-07-20T02:15:14;65.53;;;22.15;;
77868;SDS011;67231;59.144;37.934;2023-07-20T02:17:43;74.30;;;22.90;;
77868;SDS011;67231;59.144;37.934;2023-07-20T02:20:29;64.13;;;21.33;;
77868;SDS011;67231;59.144;37.934;2023-07-20T02:22:56;81.82;;;28.08;;
77868;SDS011;67231;59.144;37.934;2023-07-20T02:25:22;84.38;;;27.73;;
77868;SDS011;67231;59.144;37.934;2023-07-20T02:27:49;67.45;;;23.90;;
77868;SDS011;67231;59.144;37.934;2023-07-20T02:30:15;64.32;;;23.83;;
77868;SDS011;67231;59.144;37.934;2023-07-20T02:32:43;67.00;;;24.05;;
77868;SDS011;67231;59.144;37.934;2023-07-20T02:35:15;46.83;;;17.95;;
77868;SDS011;67231;59.144;37.934;2023-07-20T02:37:45;54.45;;;18.65;;
77868;SDS011;67231;59.144;37.934;2023-07-20T02:40:12;56.33;;;18.70;;
77868;SDS011;67231;59.144;37.934;2023-07-20T02:42:39;44.40;;;16.27;;
77868;SDS011;67231;59.144;37.934;2023-07-20T02:45:05;28.38;;;11.15;;
77868;SDS011;67231;59.144;37.934;2023-07-20T02:47:35;25.70;;;11.02;;
77868;SDS011;67231;59.144;37.934;2023-07-20T02:50:02;27.65;;;9.82;;
77868;SDS011;67231;59.144;37.934;2023-07-20T02:52:32;17.13;;;7.47;;
77868;SDS011;67231;59.144;37.934;2023-07-20T02:54:58;20.55;;;8.23;;
77868;SDS011;67231;59.144;37.934;2023-07-20T02:57:26;18.33;;;7.28;;
77868;SDS011;67231;59.144;37.934;2023-07-20T02:59:53;17.63;;;7.90;;
77868;SDS011;67231;59.144;37.934;2023-07-20T03:02:20;17.48;;;7.13;;
77868;SDS011;67231;59.144;37.934;2023-07-20T03:04:46;16.02;;;7.10;;
77868;SDS011;67231;59.144;37.934;2023-07-20T03:07:12;17.80;;;6.78;;
77868;SDS011;67231;59.144;37.934;2023-07-20T03:09:39;17.10;;;7.82;;
77868;SDS011;67231;59.144;37.934;2023-07-20T03:12:07;24.73;;;8.90;;
77868;SDS011;67231;59.144;37.934;2023-07-20T03:14:34;31.80;;;10.27;;
77868;SDS011;67231;59.144;37.934;2023-07-20T03:17:01;53.00;;;15.10;;
77868;SDS011;67231;59.144;37.934;2023-07-20T03:19:28;62.15;;;18.58;;
77868;SDS011;67231;59.144;37.934;2023-07-20T03:21:54;53.03;;;17.90;;
77868;SDS011;67231;59.144;37.934;2023-07-20T03:24:21;63.65;;;20.48;;
77868;SDS011;67231;59.144;37.934;2023-07-20T03:26:47;69.07;;;23.30;;
77868;SDS011;67231;59.144;37.934;2023-07-20T03:29:14;77.72;;;27.63;;
77868;SDS011;67231;59.144;37.934;2023-07-20T03:31:44;91.00;;;33.05;;
77868;SDS011;67231;59.144;37.934;2023-07-20T03:34:10;110.03;;;36.58;;
77868;SDS011;67231;59.144;37.934;2023-07-20T03:36:37;87.43;;;32.38;;
77868;SDS011;67231;59.144;37.934;2023-07-20T03:39:03;70.25;;;25.10;;
77868;SDS011;67231;59.144;37.934;2023-07-20T03:41:30;74.47;;;26.77;;
77868;SDS011;67231;59.144;37.934;2023-07-20T03:43:57;64.15;;;23.95;;
77868;SDS011;67231;59.144;37.934;2023-07-20T03:46:23;69.18;;;25.13;;
77868;SDS011;67231;59.144;37.934;2023-07-20T03:48:50;76.25;;;27.83;;
77868;SDS011;67231;59.144;37.934;2023-07-20T03:51:16;93.00;;;32.53;;
77868;SDS011;67231;59.144;37.934;2023-07-20T03:53:43;96.38;;;37.53;;
77868;SDS011;67231;59.144;37.934;2023-07-20T03:56:09;161.02;;;51.60;;
77868;SDS011;67231;59.144;37.934;2023-07-20T03:58:36;128.63;;;42.10;;
77868;SDS011;67231;59.144;37.934;2023-07-20T04:01:03;107.32;;;38.88;;
77868;SDS011;67231;59.144;37.934;2023-07-20T04:03:29;85.90;;;33.92;;
77868;SDS011;67231;59.144;37.934;2023-07-20T04:05:56;70.43;;;30.60;;
77868;SDS011;67231;59.144;37.934;2023-07-20T04:08:25;87.10;;;37.75;;
77868;SDS011;67231;59.144;37.934;2023-07-20T04:10:52;73.35;;;30.23;;
77868;SDS011;67231;59.144;37.934;2023-07-20T04:13:18;83.18;;;38.42;;
77868;SDS011;67231;59.144;37.934;2023-07-20T04:15:45;76.60;;;32.63;;
77868;SDS011;67231;59.144;37.934;2023-07-20T04:18:14;58.45;;;25.20;;
77868;SDS011;67231;59.144;37.934;2023-07-20T04:20:40;53.55;;;23.70;;
77868;SDS011;67231;59.144;37.934;2023-07-20T04:23:07;57.85;;;25.77;;
77868;SDS011;67231;59.144;37.934;2023-07-20T04:25:34;57.08;;;25.20;;
77868;SDS011;67231;59.144;37.934;2023-07-20T04:28:06;57.80;;;25.73;;
77868;SDS011;67231;59.144;37.934;2023-07-20T04:30:38;54.83;;;23.63;;
77868;SDS011;67231;59.144;37.934;2023-07-20T04:33:07;49.70;;;22.95;;
77868;SDS011;67231;59.144;37.934;2023-07-20T04:35:47;47.50;;;23.55;;
77868;SDS011;67231;59.144;37.934;2023-07-20T04:38:17;57.55;;;24.83;;
77868;SDS011;67231;59.144;37.934;2023-07-20T04:40:45;58.80;;;23.13;;
77868;SDS011;67231;59.144;37.934;2023-07-20T04:43:14;67.05;;;25.55;;
77868;SDS011;67231;59.144;37.934;2023-07-20T04:45:41;62.75;;;25.50;;
77868;SDS011;67231;59.144;37.934;2023-07-20T04:48:11;73.95;;;29.98;;
77868;SDS011;67231;59.144;37.934;2023-07-20T04:50:48;67.53;;;29.58;;
77868;SDS011;67231;59.144;37.934;2023-07-20T04:53:15;68.15;;;29.52;;
77868;SDS011;67231;59.144;37.934;2023-07-20T04:55:47;54.42;;;22.35;;
77868;SDS011;67231;59.144;37.934;2023-07-20T04:58:18;48.17;;;20.10;;
77868;SDS011;67231;59.144;37.934;2023-07-20T05:00:45;53.42;;;24.08;;
77868;SDS011;67231;59.144;37.934;2023-07-20T05:03:12;47.03;;;21.52;;
77868;SDS011;67231;59.144;37.934;2023-07-20T05:05:39;52.25;;;22.23;;
77868;SDS011;67231;59.144;37.934;2023-07-20T05:08:05;44.38;;;19.50;;
77868;SDS011;67231;59.144;37.934;2023-07-20T05:10:32;53.03;;;22.20;;
77868;SDS011;67231;59.144;37.934;2023-07-20T05:12:59;64.95;;;26.00;;
77868;SDS011;67231;59.144;37.934;2023-07-20T05:15:26;58.53;;;24.88;;
77868;SDS011;67231;59.144;37.934;2023-07-20T05:17:53;54.13;;;23.55;;
77868;SDS011;67231;59.144;37.934;2023-07-20T05:20:20;57.85;;;24.23;;
77868;SDS011;67231;59.144;37.934;2023-07-20T05:22:49;54.42;;;22.02;;
77868;SDS011;67231;59.144;37.934;2023-07-20T05:25:16;61.72;;;22.88;;
77868;SDS011;67231;59.144;37.934;2023-07-20T05:27:44;45.83;;;19.20;;
77868;SDS011;67231;59.144;37.934;2023-07-20T05:30:12;53.97;;;21.27;;
77868;SDS011;67231;59.144;37.934;2023-07-20T05:32:39;51.22;;;22.15;;
77868;SDS011;67231;59.144;37.934;2023-07-20T05:35:05;50.92;;;19.52;;
77868;SDS011;67231;59.144;37.934;2023-07-20T05:37:33;52.28;;;21.75;;
77868;SDS011;67231;59.144;37.934;2023-07-20T05:40:03;49.03;;;20.48;;
77868;SDS011;67231;59.144;37.934;2023-07-20T05:42:31;55.33;;;21.05;;
77868;SDS011;67231;59.144;37.934;2023-07-20T05:44:57;52.70;;;20.67;;
77868;SDS011;67231;59.144;37.934;2023-07-20T05:47:24;54.40;;;21.80;;
77868;SDS011;67231;59.144;37.934;2023-07-20T05:49:50;47.70;;;20.45;;
77868;SDS011;67231;59.144;37.934;2023-07-20T05:52:17;64.00;;;25.80;;
77868;SDS011;67231;59.144;37.934;2023-07-20T05:54:46;57.60;;;23.38;;
77868;SDS011;67231;59.144;37.934;2023-07-20T05:57:12;54.78;;;22.17;;
77868;SDS011;67231;59.144;37.934;2023-07-20T05:59:39;54.75;;;22.48;;
77868;SDS011;67231;59.144;37.934;2023-07-20T06:02:10;54.28;;;21.40;;
77868;SDS011;67231;59.144;37.934;2023-07-20T06:04:41;54.28;;;22.48;;
77868;SDS011;67231;59.144;37.934;2023-07-20T06:07:07;64.88;;;25.77;;
77868;SDS011;67231;59.144;37.934;2023-07-20T06:09:34;59.80;;;25.50;;
77868;SDS011;67231;59.144;37.934;2023-07-20T06:12:01;63.63;;;24.48;;
77868;SDS011;67231;59.144;37.934;2023-07-20T06:14:27;45.67;;;19.65;;
77868;SDS011;67231;59.144;37.934;2023-07-20T06:16:54;60.67;;;27.85;;
77868;SDS011;67231;59.144;37.934;2023-07-20T06:19:20;47.22;;;17.83;;
77868;SDS011;67231;59.144;37.934;2023-07-20T06:21:48;39.63;;;16.20;;
77868;SDS011;67231;59.144;37.934;2023-07-20T06:24:16;60.53;;;17.48;;
77868;SDS011;67231;59.144;37.934;2023-07-20T06:26:43;44.80;;;19.63;;
77868;SDS011;67231;59.144;37.934;2023-07-20T06:29:09;57.33;;;22.40;;
77868;SDS011;67231;59.144;37.934;2023-07-20T06:31:36;50.45;;;20.25;;
77868;SDS011;67231;59.144;37.934;2023-07-20T06:34:03;52.30;;;19.48;;
77868;SDS011;67231;59.144;37.934;2023-07-20T06:36:30;39.80;;;16.63;;
77868;SDS011;67231;59.144;37.934;2023-07-20T06:38:56;54.00;;;23.98;;
77868;SDS011;67231;59.144;37.934;2023-07-20T06:41:23;45.28;;;20.55;;
77868;SDS011;67231;59.144;37.934;2023-07-20T06:43:50;31.73;;;14.15;;
77868;SDS011;67231;59.144;37.934;2023-07-20T06:46:16;35.42;;;13.10;;
77868;SDS011;67231;59.144;37.934;2023-07-20T06:48:43;28.65;;;11.60;;
77868;SDS011;67231;59.144;37.934;2023-07-20T06:51:09;43.47;;;17.02;;
77868;SDS011;67231;59.144;37.934;2023-07-20T06:53:36;23.23;;;10.70;;
77868;SDS011;67231;59.144;37.934;2023-07-20T06:56:03;30.85;;;12.00;;
77868;SDS011;67231;59.144;37.934;2023-07-20T06:58:29;32.10;;;12.43;;
77868;SDS011;67231;59.144;37.934;2023-07-20T07:00:56;44.60;;;16.38;;
77868;SDS011;67231;59.144;37.934;2023-07-20T07:03:23;51.70;;;18.52;;
77868;SDS011;67231;59.144;37.934;2023-07-20T07:05:49;32.85;;;15.02;;
77868;SDS011;67231;59.144;37.934;2023-07-20T07:08:15;35.35;;;13.35;;
77868;SDS011;67231;59.144;37.934;2023-07-20T07:13:11;32.90;;;12.20;;
77868;SDS011;67231;59.144;37.934;2023-07-20T07:15:37;38.05;;;13.75;;
77868;SDS011;67231;59.144;37.934;2023-07-20T07:18:04;45.33;;;19.15;;
77868;SDS011;67231;59.144;37.934;2023-07-20T07:20:30;44.13;;;19.65;;
77868;SDS011;67231;59.144;37.934;2023-07-20T07:22:57;58.42;;;25.67;;
77868;SDS011;67231;59.144;37.934;2023-07-20T07:25:23;53.47;;;22.20;;
77868;SDS011;67231;59.144;37.934;2023-07-20T07:27:50;47.13;;;19.23;;
77868;SDS011;67231;59.144;37.934;2023-07-20T07:30:18;59.30;;;18.75;;
77868;SDS011;67231;59.144;37.934;2023-07-20T07:32:45;48.00;;;16.63;;
77868;SDS011;67231;59.144;37.934;2023-07-20T07:35:12;33.60;;;11.30;;
77868;SDS011;67231;59.144;37.934;2023-07-20T07:37:38;37.25;;;13.20;;
77868;SDS011;67231;59.144;37.934;2023-07-20T07:40:06;31.13;;;11.45;;
77868;SDS011;67231;59.144;37.934;2023-07-20T07:42:34;50.80;;;16.38;;
77868;SDS011;67231;59.144;37.934;2023-07-20T07:45:02;41.10;;;14.95;;
77868;SDS011;67231;59.144;37.934;2023-07-20T07:47:31;42.88;;;16.42;;
77868;SDS011;67231;59.144;37.934;2023-07-20T07:49:57;36.20;;;15.05;;
77868;SDS011;67231;59.144;37.934;2023-07-20T07:52:24;34.58;;;13.30;;
77868;SDS011;67231;59.144;37.934;2023-07-20T07:54:50;35.65;;;14.55;;
77868;SDS011;67231;59.144;37.934;2023-07-20T07:57:17;30.77;;;12.02;;
77868;SDS011;67231;59.144;37.934;2023-07-20T07:59:43;28.30;;;14.27;;
77868;SDS011;67231;59.144;37.934;2023-07-20T08:02:10;30.45;;;11.38;;
77868;SDS011;67231;59.144;37.934;2023-07-20T08:04:36;21.45;;;8.65;;
77868;SDS011;67231;59.144;37.934;2023-07-20T08:07:03;25.63;;;9.35;;
77868;SDS011;67231;59.144;37.934;2023-07-20T08:09:30;39.92;;;12.93;;
77868;SDS011;67231;59.144;37.934;2023-07-20T08:11:56;28.90;;;11.10;;
77868;SDS011;67231;59.144;37.934;2023-07-20T08:14:23;35.72;;;11.80;;
77868;SDS011;67231;59.144;37.934;2023-07-20T08:16:49;36.80;;;11.63;;
77868;SDS011;67231;59.144;37.934;2023-07-20T08:19:16;29.80;;;10.18;;
77868;SDS011;67231;59.144;37.934;2023-07-20T08:21:42;36.08;;;10.57;;
77868;SDS011;67231;59.144;37.934;2023-07-20T08:24:09;48.15;;;15.75;;
77868;SDS011;67231;59.144;37.934;2023-07-20T08:26:35;39.50;;;14.13;;
77868;SDS011;67231;59.144;37.934;2023-07-20T08:29:02;45.42;;;13.70;;
77868;SDS011;67231;59.144;37.934;2023-07-20T08:31:28;48.63;;;19.08;;
77868;SDS011;67231;59.144;37.934;2023-07-20T08:33:55;45.70;;;19.42;;
77868;SDS011;67231;59.144;37.934;2023-07-20T08:36:23;41.65;;;15.93;;
77868;SDS011;67231;59.144;37.934;2023-07-20T08:38:49;45.60;;;21.00;;
77868;SDS011;67231;59.144;37.934;2023-07-20T08:41:17;37.60;;;14.63;;
77868;SDS011;67231;59.144;37.934;2023-07-20T08:43:44;43.45;;;15.73;;
77868;SDS011;67231;59.144;37.934;2023-07-20T08:46:13;20.25;;;7.30;;
77868;SDS011;67231;59.144;37.934;2023-07-20T08:48:41;32.97;;;11.07;;
77868;SDS011;67231;59.144;37.934;2023-07-20T08:51:09;27.95;;;10.00;;
77868;SDS011;67231;59.144;37.934;2023-07-20T08:53:37;29.67;;;8.95;;
77868;SDS011;67231;59.144;37.934;2023-07-20T08:56:03;23.23;;;7.65;;
77868;SDS011;67231;59.144;37.934;2023-07-20T08:58:31;23.85;;;8.23;;
77868;SDS011;67231;59.144;37.934;2023-07-20T09:01:00;25.27;;;8.23;;
77868;SDS011;67231;59.144;37.934;2023-07-20T09:03:27;26.20;;;8.98;;
77868;SDS011;67231;59.144;37.934;2023-07-20T09:05:53;24.55;;;9.77;;
77868;SDS011;67231;59.144;37.934;2023-07-20T09:08:20;16.52;;;6.65;;
77868;SDS011;67231;59.144;37.934;2023-07-20T09:10:46;18.30;;;7.55;;
77868;SDS011;67231;59.144;37.934;2023-07-20T09:13:16;16.20;;;6.30;;
77868;SDS011;67231;59.144;37.934;2023-07-20T09:15:46;14.25;;;5.53;;
77868;SDS011;67231;59.144;37.934;2023-07-20T09:18:23;17.67;;;6.78;;
77868;SDS011;67231;59.144;37.934;2023-07-20T09:21:03;19.35;;;7.90;;
77868;SDS011;67231;59.144;37.934;2023-07-20T09:23:32;14.07;;;6.10;;
77868;SDS011;67231;59.144;37.934;2023-07-20T09:26:09;17.15;;;6.95;;
77868;SDS011;67231;59.144;37.934;2023-07-20T09:29:10;11.93;;;5.00;;
77868;SDS011;67231;59.144;37.934;2023-07-20T09:31:33;10.45;;;5.20;;
77868;SDS011;67231;59.144;37.934;2023-07-20T09:34:00;13.52;;;5.97;;
77868;SDS011;67231;59.144;37.934;2023-07-20T09:36:26;7.88;;;4.50;;
77868;SDS011;67231;59.144;37.934;2023-07-20T09:38:54;8.98;;;4.60;;
77868;SDS011;67231;59.144;37.934;2023-07-20T09:41:21;10.23;;;5.57;;
77868;SDS011;67231;59.144;37.934;2023-07-20T09:43:48;12.43;;;5.75;;
77868;SDS011;67231;59.144;37.934;2023-07-20T09:46:15;8.82;;;4.65;;
77868;SDS011;67231;59.144;37.934;2023-07-20T09:48:51;8.75;;;4.32;;
77868;SDS011;67231;59.144;37.934;2023-07-20T09:51:24;7.65;;;4.20;;
77868;SDS011;67231;59.144;37.934;2023-07-20T09:53:52;3.72;;;2.40;;
77868;SDS011;67231;59.144;37.934;2023-07-20T09:56:21;7.82;;;3.40;;
77868;SDS011;67231;59.144;37.934;2023-07-20T09:58:49;4.47;;;2.55;;
77868;SDS011;67231;59.144;37.934;2023-07-20T10:01:18;6.78;;;2.80;;
77868;SDS011;67231;59.144;37.934;2023-07-20T10:03:47;4.47;;;2.53;;
77868;SDS011;67231;59.144;37.934;2023-07-20T10:06:18;5.22;;;2.70;;
77868;SDS011;67231;59.144;37.934;2023-07-20T10:08:51;4.00;;;2.28;;
77868;SDS011;67231;59.144;37.934;2023-07-20T10:11:19;7.30;;;4.07;;
77868;SDS011;67231;59.144;37.934;2023-07-20T10:13:51;35.58;;;12.85;;
77868;SDS011;67231;59.144;37.934;2023-07-20T10:16:28;42.72;;;13.10;;
77868;SDS011;67231;59.144;37.934;2023-07-20T10:21:42;32.63;;;9.82;;
77868;SDS011;67231;59.144;37.934;2023-07-20T10:24:17;13.73;;;6.03;;
77868;SDS011;67231;59.144;37.934;2023-07-20T10:26:44;30.35;;;9.70;;
77868;SDS011;67231;59.144;37.934;2023-07-20T10:29:11;20.20;;;7.82;;
77868;SDS011;67231;59.144;37.934;2023-07-20T10:31:38;36.63;;;13.55;;
77868;SDS011;67231;59.144;37.934;2023-07-20T10:34:05;29.00;;;10.63;;
77868;SDS011;67231;59.144;37.934;2023-07-20T10:36:32;18.23;;;7.85;;
77868;SDS011;67231;59.144;37.934;2023-07-20T10:38:58;35.83;;;14.05;;
77868;SDS011;67231;59.144;37.934;2023-07-20T10:41:28;44.50;;;15.05;;
77868;SDS011;67231;59.144;37.934;2023-07-20T10:43:58;49.05;;;13.77;;
77868;SDS011;67231;59.144;37.934;2023-07-20T10:46:48;39.85;;;12.07;;
77868;SDS011;67231;59.144;37.934;2023-07-20T10:49:14;43.53;;;14.82;;
77868;SDS011;67231;59.144;37.934;2023-07-20T10:51:42;41.75;;;15.80;;
77868;SDS011;67231;59.144;37.934;2023-07-20T10:56:43;34.00;;;12.73;;
77868;SDS011;67231;59.144;37.934;2023-07-20T11:01:49;34.65;;;11.20;;
77868;SDS011;67231;59.144;37.934;2023-07-20T11:04:16;42.25;;;12.07;;
77868;SDS011;67231;59.144;37.934;2023-07-20T11:06:48;42.97;;;13.10;;
77868;SDS011;67231;59.144;37.934;2023-07-20T11:09:22;43.17;;;13.02;;
77868;SDS011;67231;59.144;37.934;2023-07-20T11:11:51;33.40;;;10.35;;
77868;SDS011;67231;59.144;37.934;2023-07-20T11:14:40;23.20;;;7.38;;
77868;SDS011;67231;59.144;37.934;2023-07-20T11:17:11;18.60;;;5.57;;
77868;SDS011;67231;59.144;37.934;2023-07-20T11:19:42;15.75;;;5.78;;
77868;SDS011;67231;59.144;37.934;2023-07-20T11:22:08;25.63;;;8.95;;
77868;SDS011;67231;59.144;37.934;2023-07-20T11:24:39;30.13;;;10.98;;
77868;SDS011;67231;59.144;37.934;2023-07-20T11:27:11;33.58;;;13.27;;
77868;SDS011;67231;59.144;37.934;2023-07-20T11:29:38;48.53;;;17.08;;
77868;SDS011;67231;59.144;37.934;2023-07-20T11:32:04;47.75;;;17.20;;
77868;SDS011;67231;59.144;37.934;2023-07-20T11:34:31;52.58;;;19.60;;
77868;SDS011;67231;59.144;37.934;2023-07-20T11:36:59;55.67;;;20.40;;
77868;SDS011;67231;59.144;37.934;2023-07-20T11:39:28;37.50;;;13.20;;
77868;SDS011;67231;59.144;37.934;2023-07-20T11:41:56;52.38;;;18.77;;
77868;SDS011;67231;59.144;37.934;2023-07-20T11:44:24;53.72;;;23.25;;
77868;SDS011;67231;59.144;37.934;2023-07-20T11:47:03;54.17;;;21.75;;
77868;SDS011;67231;59.144;37.934;2023-07-20T11:49:30;54.15;;;18.77;;
77868;SDS011;67231;59.144;37.934;2023-07-20T11:52:00;51.08;;;17.75;;
77868;SDS011;67231;59.144;37.934;2023-07-20T11:54:27;48.55;;;16.73;;
77868;SDS011;67231;59.144;37.934;2023-07-20T11:56:54;65.13;;;25.00;;
77868;SDS011;67231;59.144;37.934;2023-07-20T11:59:22;65.43;;;22.80;;
77868;SDS011;67231;59.144;37.934;2023-07-20T12:01:48;52.28;;;21.23;;
77868;SDS011;67231;59.144;37.934;2023-07-20T12:04:15;64.40;;;20.33;;
77868;SDS011;67231;59.144;37.934;2023-07-20T12:06:42;62.08;;;22.45;;
77868;SDS011;67231;59.144;37.934;2023-07-20T12:09:12;64.43;;;21.50;;
77868;SDS011;67231;59.144;37.934;2023-07-20T12:11:42;42.17;;;13.15;;
77868;SDS011;67231;59.144;37.934;2023-07-20T12:14:09;34.15;;;11.48;;
77868;SDS011;67231;59.144;37.934;2023-07-20T12:16:38;35.85;;;11.98;;
77868;SDS011;67231;59.144;37.934;2023-07-20T12:19:05;39.00;;;13.90;;
77868;SDS011;67231;59.144;37.934;2023-07-20T12:21:37;42.67;;;16.73;;
77868;SDS011;67231;59.144;37.934;2023-07-20T12:24:06;48.75;;;16.05;;
77868;SDS011;67231;59.144;37.934;2023-07-20T12:26:35;51.20;;;17.48;;
77868;SDS011;67231;59.144;37.934;2023-07-20T12:29:01;47.80;;;15.32;;
77868;SDS011;67231;59.144;37.934;2023-07-20T12:33:57;29.85;;;9.65;;
77868;SDS011;67231;59.144;37.934;2023-07-20T12:36:24;35.22;;;11.50;;
77868;SDS011;67231;59.144;37.934;2023-07-20T12:38:51;36.35;;;11.88;;
77868;SDS011;67231;59.144;37.934;2023-07-20T12:41:17;51.78;;;18.98;;
77868;SDS011;67231;59.144;37.934;2023-07-20T12:43:44;58.60;;;18.63;;
77868;SDS011;67231;59.144;37.934;2023-07-20T12:46:12;51.00;;;17.50;;
77868;SDS011;67231;59.144;37.934;2023-07-20T12:48:40;36.70;;;15.60;;
77868;SDS011;67231;59.144;37.934;2023-07-20T12:51:09;43.92;;;17.35;;
77868;SDS011;67231;59.144;37.934;2023-07-20T12:53:36;43.17;;;18.15;;
77868;SDS011;67231;59.144;37.934;2023-07-20T12:56:03;69.97;;;22.13;;
77868;SDS011;67231;59.144;37.934;2023-07-20T12:58:30;72.82;;;25.75;;
77868;SDS011;67231;59.144;37.934;2023-07-20T13:00:56;40.22;;;15.30;;
77868;SDS011;67231;59.144;37.934;2023-07-20T13:03:23;50.03;;;25.45;;
77868;SDS011;67231;59.144;37.934;2023-07-20T13:05:50;38.53;;;17.90;;
77868;SDS011;67231;59.144;37.934;2023-07-20T13:08:16;34.65;;;12.48;;
77868;SDS011;67231;59.144;37.934;2023-07-20T13:10:44;23.73;;;8.95;;
77868;SDS011;67231;59.144;37.934;2023-07-20T13:13:10;23.98;;;10.50;;
77868;SDS011;67231;59.144;37.934;2023-07-20T13:15:41;22.48;;;7.15;;
77868;SDS011;67231;59.144;37.934;2023-07-20T13:18:09;15.93;;;6.68;;
77868;SDS011;67231;59.144;37.934;2023-07-20T13:20:36;15.68;;;6.60;;
77868;SDS011;67231;59.144;37.934;2023-07-20T13:23:02;13.90;;;5.80;;
77868;SDS011;67231;59.144;37.934;2023-07-20T13:25:29;17.42;;;6.65;;
77868;SDS011;67231;59.144;37.934;2023-07-20T13:27:55;23.58;;;8.13;;
77868;SDS011;67231;59.144;37.934;2023-07-20T13:30:22;15.95;;;6.72;;
77868;SDS011;67231;59.144;37.934;2023-07-20T13:32:49;27.33;;;10.32;;
77868;SDS011;67231;59.144;37.934;2023-07-20T13:35:15;41.33;;;17.05;;
77868;SDS011;67231;59.144;37.934;2023-07-20T13:37:42;26.45;;;10.73;;
77868;SDS011;67231;59.144;37.934;2023-07-20T13:40:08;34.50;;;12.40;;
77868;SDS011;67231;59.144;37.934;2023-07-20T13:42:39;39.72;;;14.57;;
77868;SDS011;67231;59.144;37.934;2023-07-20T13:45:09;52.08;;;21.17;;
77868;SDS011;67231;59.144;37.934;2023-07-20T13:47:36;36.75;;;17.95;;
77868;SDS011;67231;59.144;37.934;2023-07-20T13:50:02;23.77;;;9.73;;
77868;SDS011;67231;59.144;37.934;2023-07-20T13:52:32;27.13;;;9.25;;
77868;SDS011;67231;59.144;37.934;2023-07-20T13:54:58;21.02;;;8.85;;
77868;SDS011;67231;59.144;37.934;2023-07-20T13:57:25;19.50;;;7.38;;
77868;SDS011;67231;59.144;37.934;2023-07-20T13:59:51;13.23;;;5.20;;
77868;SDS011;67231;59.144;37.934;2023-07-20T14:02:18;9.70;;;4.47;;
77868;SDS011;67231;59.144;37.934;2023-07-20T14:04:44;8.75;;;3.97;;
77868;SDS011;67231;59.144;37.934;2023-07-20T14:07:11;15.80;;;5.70;;
77868;SDS011;67231;59.144;37.934;2023-07-20T14:09:38;13.52;;;4.55;;
77868;SDS011;67231;59.144;37.934;2023-07-20T14:12:05;12.05;;;5.45;;
77868;SDS011;67231;59.144;37.934;2023-07-20T14:14:32;18.48;;;5.78;;
77868;SDS011;67231;59.144;37.934;2023-07-20T14:16:58;18.88;;;6.82;;
77868;SDS011;67231;59.144;37.934;2023-07-20T14:19:25;26.50;;;8.90;;
77868;SDS011;67231;59.144;37.934;2023-07-20T14:21:51;20.02;;;8.43;;
77868;SDS011;67231;59.144;37.934;2023-07-20T14:24:18;20.13;;;7.63;;
77868;SDS011;67231;59.144;37.934;2023-07-20T14:26:45;19.80;;;8.05;;
77868;SDS011;67231;59.144;37.934;2023-07-20T14:29:14;11.75;;;6.20;;
77868;SDS011;67231;59.144;37.934;2023-07-20T14:31:40;14.90;;;5.90;;
77868;SDS011;67231;59.144;37.934;2023-07-20T14:34:07;12.15;;;5.00;;
77868;SDS011;67231;59.144;37.934;2023-07-20T14:36:34;19.15;;;7.22;;
77868;SDS011;67231;59.144;37.934;2023-07-20T14:39:01;20.90;;;7.10;;
77868;SDS011;67231;59.144;37.934;2023-07-20T14:41:28;22.05;;;7.47;;
77868;SDS011;67231;59.144;37.934;2023-07-20T14:43:54;25.67;;;10.07;;